Time;durP1;ratioP1;P1;durP2;ratioP2;P2;SDS_P1;SDS_P2;PMS_P1;PMS_P2;Temp;Humidity;BMP_temperature;BMP_pressure;BME280_temperature;BME280_humidity;BME280_pressure;Samples;Min_cycle;Max_cycle;Signal;HPM_P1;HPM_P2
2022/06/25 00:00:49;;;;;;;2.10;1.38;;;;;;;21.88;62.70;100310.94;4801930;29;20061;-74
2022/06/25 00:03:17;;;;;;;2.08;1.45;;;;;;;21.92;61.86;100314.63;4796911;29;20066;-75
2022/06/25 00:05:45;;;;;;;2.55;1.30;;;;;;;21.85;62.04;100323.63;4794673;29;20523;-75
2022/06/25 00:08:13;;;;;;;2.03;1.23;;;;;;;21.86;62.41;100318.84;4805662;29;20047;-74
2022/06/25 00:10:42;;;;;;;3.97;1.50;;;;;;;21.82;62.50;100316.00;4805441;29;20054;-75
2022/06/25 00:13:10;;;;;;;6.28;1.48;;;;;;;21.85;62.25;100317.25;4805663;29;20371;-74
2022/06/25 00:15:38;;;;;;;1.00;0.98;;;;;;;21.81;62.94;100319.13;4805657;29;20593;-75
2022/06/25 00:18:06;;;;;;;2.25;1.27;;;;;;;21.84;62.82;100319.22;4805070;29;20054;-74
2022/06/25 00:20:34;;;;;;;3.67;1.15;;;;;;;22.04;62.32;100321.22;4805472;29;20062;-74
2022/06/25 00:23:02;;;;;;;4.72;1.42;;;;;;;21.85;63.14;100315.25;4805666;29;20058;-74
2022/06/25 00:25:30;;;;;;;2.05;1.27;;;;;;;22.08;62.26;100313.72;4794753;29;20051;-74
2022/06/25 00:27:58;;;;;;;3.03;1.20;;;;;;;22.02;62.45;100316.84;4798919;29;20051;-73
2022/06/25 00:30:27;;;;;;;1.67;1.40;;;;;;;21.75;63.84;100313.84;4782372;29;20061;-74
2022/06/25 00:32:55;;;;;;;2.10;1.02;;;;;;;21.69;64.05;100306.91;4804801;29;20054;-74
2022/06/25 00:35:24;;;;;;;5.15;1.38;;;;;;;21.56;64.44;100303.44;4805154;29;20055;-74
2022/06/25 00:37:52;;;;;;;2.63;1.27;;;;;;;21.50;65.13;100315.22;4788742;29;20055;-73
2022/06/25 00:40:20;;;;;;;2.20;1.40;;;;;;;21.43;65.21;100304.72;4788916;29;20062;-74
2022/06/25 00:42:50;;;;;;;4.38;1.35;;;;;;;21.40;65.65;100305.47;4805337;29;20062;-74
2022/06/25 00:45:18;;;;;;;6.82;1.67;;;;;;;21.23;65.94;100313.00;4804965;29;20439;-74
2022/06/25 00:47:46;;;;;;;2.33;1.50;;;;;;;21.21;66.30;100304.19;4805070;29;20055;-74
2022/06/25 00:50:14;;;;;;;2.53;1.63;;;;;;;21.29;65.68;100299.63;4804458;29;20071;-74
2022/06/25 00:52:45;;;;;;;2.22;1.10;;;;;;;21.27;65.51;100313.91;4804963;29;20051;-74
2022/06/25 00:55:19;;;;;;;3.00;1.27;;;;;;;21.21;65.89;100313.34;4805180;29;20050;-74
2022/06/25 00:57:51;;;;;;;3.22;1.33;;;;;;;21.22;66.35;100319.75;4789096;29;20055;-74
2022/06/25 01:00:19;;;;;;;2.50;1.05;;;;;;;21.28;65.83;100317.47;4788899;29;20509;-73
2022/06/25 01:02:47;;;;;;;2.83;1.17;;;;;;;21.41;65.27;100321.78;4789086;29;20043;-74
2022/06/25 01:05:16;;;;;;;4.40;1.13;;;;;;;21.43;65.39;100330.59;4770851;30;20055;-74
2022/06/25 01:07:48;;;;;;;1.33;1.23;;;;;;;21.60;64.90;100325.78;4803331;29;20399;-73
2022/06/25 01:10:17;;;;;;;1.70;1.58;;;;;;;21.46;65.25;100332.63;4788859;29;20051;-74
2022/06/25 01:12:45;;;;;;;1.00;1.00;;;;;;;21.48;64.95;100335.88;4785202;29;20052;-74
2022/06/25 01:15:14;;;;;;;2.38;1.20;;;;;;;21.60;64.51;100337.75;4796308;29;20054;-74
2022/06/25 01:17:52;;;;;;;0.88;0.80;;;;;;;21.66;64.28;100329.94;4788643;29;20055;-73
2022/06/25 01:20:26;;;;;;;2.35;1.42;;;;;;;21.72;63.97;100324.91;4788780;29;20494;-73
2022/06/25 01:22:54;;;;;;;3.08;1.52;;;;;;;21.64;64.40;100329.47;4807071;29;20059;-73
2022/06/25 01:25:24;;;;;;;6.45;1.67;;;;;;;21.68;64.41;100324.81;4791854;29;20051;-74
2022/06/25 01:27:52;;;;;;;1.75;0.95;;;;;;;21.72;64.04;100324.91;4807849;29;20063;-74
2022/06/25 01:30:20;;;;;;;1.55;1.00;;;;;;;21.73;63.87;100318.97;4808338;29;20055;-74
2022/06/25 01:32:48;;;;;;;1.80;1.00;;;;;;;21.78;63.52;100320.66;4792141;29;20051;-74
2022/06/25 01:35:17;;;;;;;1.55;1.02;;;;;;;21.97;62.85;100328.25;4788475;29;20066;-74
2022/06/25 01:37:44;;;;;;;2.75;1.10;;;;;;;22.16;62.04;100329.44;4790645;29;20079;-74
2022/06/25 01:40:12;;;;;;;1.85;1.15;;;;;;;22.24;61.58;100328.41;4790091;29;20066;-74
2022/06/25 01:42:59;;;;;;;3.25;1.25;;;;;;;22.22;61.36;100332.75;4789937;29;20526;-74
2022/06/25 01:45:34;;;;;;;1.30;1.15;;;;;;;22.29;61.18;100332.91;4788848;29;20396;-74
2022/06/25 01:48:05;;;;;;;1.75;1.15;;;;;;;22.25;61.31;100337.59;4788266;29;20051;-74
2022/06/25 01:50:36;;;;;;;4.45;0.90;;;;;;;22.24;61.51;100336.00;4789969;29;20051;-74
2022/06/25 01:53:05;;;;;;;3.10;1.10;;;;;;;22.27;61.43;100336.06;4788491;29;20070;-74
2022/06/25 01:55:33;;;;;;;1.70;1.00;;;;;;;22.28;61.02;100331.28;4789729;29;20060;-74
2022/06/25 01:58:02;;;;;;;1.38;1.02;;;;;;;22.38;60.63;100336.25;4788788;29;20043;-74
2022/06/25 02:00:32;;;;;;;2.25;0.98;;;;;;;22.40;60.75;100330.34;4788182;29;20075;-74
2022/06/25 02:03:06;;;;;;;2.40;1.27;;;;;;;22.26;60.91;100334.44;4788300;29;20056;-74
2022/06/25 02:08:23;;;;;;;4.18;1.23;;;;;;;22.17;61.53;100331.06;4789836;29;20385;-74
2022/06/25 02:10:52;;;;;;;1.58;1.17;;;;;;;22.15;61.50;100339.78;4789442;29;20070;-73
2022/06/25 02:13:20;;;;;;;2.03;1.30;;;;;;;22.08;62.09;100333.25;4787973;29;20051;-73
2022/06/25 02:15:48;;;;;;;1.77;1.23;;;;;;;21.87;62.75;100340.78;4789252;29;20051;-73
2022/06/25 02:18:17;;;;;;;1.10;1.08;;;;;;;21.86;62.81;100333.56;4787485;29;20062;-74
2022/06/25 02:20:45;;;;;;;3.13;1.20;;;;;;;21.77;63.31;100340.53;4787916;29;20051;-73
2022/06/25 02:23:14;;;;;;;1.15;1.02;;;;;;;21.78;63.04;100334.59;4775903;29;20047;-73
2022/06/25 02:25:43;;;;;;;1.88;0.93;;;;;;;21.69;63.15;100337.56;4787431;29;20062;-73
2022/06/25 02:28:15;;;;;;;1.27;1.10;;;;;;;21.68;63.23;100340.69;4788948;29;20067;-74
2022/06/25 02:30:44;;;;;;;3.08;1.33;;;;;;;21.56;64.03;100336.84;4788264;29;20054;-74
2022/06/25 02:33:14;;;;;;;2.47;1.23;;;;;;;21.43;64.61;100347.28;4788143;29;20070;-73
2022/06/25 02:35:44;;;;;;;1.90;1.13;;;;;;;21.33;65.01;100345.88;4787555;29;20063;-73
2022/06/25 02:38:15;;;;;;;3.13;1.35;;;;;;;21.33;64.95;100345.03;4787800;29;20051;-73
2022/06/25 02:40:48;;;;;;;1.48;0.93;;;;;;;21.36;64.97;100349.88;4787447;29;20059;-73
2022/06/25 02:43:16;;;;;;;2.05;1.63;;;;;;;21.41;64.68;100346.03;4789208;29;20487;-73
2022/06/25 02:45:51;;;;;;;0.95;0.93;;;;;;;21.34;64.72;100349.44;4787511;29;20523;-73
2022/06/25 02:48:19;;;;;;;2.22;1.33;;;;;;;21.50;64.15;100337.50;4787085;29;20055;-73
2022/06/25 02:50:47;;;;;;;2.80;1.10;;;;;;;21.47;64.28;100344.59;4787517;29;20051;-74
2022/06/25 02:53:15;;;;;;;2.30;1.50;;;;;;;21.44;64.07;100340.56;4787487;29;20056;-73
2022/06/25 03:01:27;;;;;;;0.88;0.88;;;;;;;21.66;62.95;100326.34;4787681;29;20506;-73
2022/06/25 03:03:57;;;;;;;1.17;0.88;;;;;;;21.66;63.09;100329.94;4787022;29;20056;-73
2022/06/25 03:06:26;;;;;;;1.30;1.02;;;;;;;21.48;63.62;100329.50;4787674;29;20407;-74
2022/06/25 03:08:56;;;;;;;1.27;1.08;;;;;;;21.43;63.90;100322.25;4786795;29;20051;-74
2022/06/25 03:11:24;;;;;;;2.35;1.20;;;;;;;21.44;63.66;100323.84;4786859;29;20407;-73
2022/06/25 03:13:52;;;;;;;2.35;1.15;;;;;;;21.36;64.11;100313.69;4788437;29;20059;-73
2022/06/25 03:16:21;;;;;;;1.38;1.17;;;;;;;21.29;64.32;100316.31;4786763;29;20059;-73
2022/06/25 03:18:51;;;;;;;1.05;0.85;;;;;;;21.23;64.51;100323.31;4786665;29;20051;-73
2022/06/25 03:21:36;;;;;;;4.43;1.35;;;;;;;21.15;64.81;100317.56;4787020;29;20408;-73
2022/06/25 03:24:07;;;;;;;1.38;1.08;;;;;;;21.09;64.97;100313.44;4786589;29;20070;-73
2022/06/25 03:26:36;;;;;;;1.10;1.10;;;;;;;21.08;65.02;100315.41;4786364;29;20052;-73
2022/06/25 03:29:05;;;;;;;1.02;0.93;;;;;;;21.24;64.50;100313.78;4785041;29;20055;-73
2022/06/25 03:31:36;;;;;;;1.15;1.00;;;;;;;21.24;64.46;100316.56;4790943;29;20060;-73
2022/06/25 03:34:23;;;;;;;1.20;1.10;;;;;;;21.20;64.24;100316.50;4779400;29;20055;-73
2022/06/25 03:36:52;;;;;;;1.17;1.00;;;;;;;21.12;64.58;100309.94;4774962;29;20074;-73
2022/06/25 03:39:21;;;;;;;1.35;0.85;;;;;;;21.19;65.04;100317.66;4786220;29;20051;-73
2022/06/25 03:41:50;;;;;;;1.83;0.98;;;;;;;21.12;64.51;100323.84;4786736;29;20066;-73
2022/06/25 03:44:24;;;;;;;0.45;0.45;;;;;;;21.32;64.22;100318.38;4787839;29;20055;-73
2022/06/25 03:47:00;;;;;;;1.27;0.88;;;;;;;21.47;63.41;100323.13;4786814;29;20050;-73
2022/06/25 03:49:30;;;;;;;3.65;1.02;;;;;;;21.44;63.35;100323.84;4786575;29;20399;-73
2022/06/25 03:52:06;;;;;;;4.63;1.13;;;;;;;21.36;63.83;100327.59;4785486;29;20055;-73
2022/06/25 03:54:35;;;;;;;3.30;1.20;;;;;;;21.27;64.12;100340.91;4786266;29;20051;-73
2022/06/25 03:57:04;;;;;;;3.17;1.33;;;;;;;21.27;64.08;100332.56;4786496;29;20054;-73
2022/06/25 03:59:51;;;;;;;1.88;1.00;;;;;;;21.19;64.14;100346.31;4787868;29;20055;-73
2022/06/25 04:02:39;;;;;;;4.45;1.20;;;;;;;21.10;64.88;100342.09;4770018;29;20492;-73
2022/06/25 04:05:25;;;;;;;1.02;0.93;;;;;;;21.11;64.57;100338.94;4788165;29;20070;-73
2022/06/25 04:07:56;;;;;;;1.67;1.20;;;;;;;21.03;65.43;100345.47;4779147;29;20427;-73
2022/06/25 04:10:25;;;;;;;1.67;1.13;;;;;;;21.19;64.17;100345.50;4781499;29;20077;-73
2022/06/25 04:13:01;;;;;;;4.53;1.10;;;;;;;21.34;63.43;100346.66;4793044;29;20051;-73
2022/06/25 04:15:29;;;;;;;1.35;0.80;;;;;;;21.22;64.14;100347.56;4791990;29;20055;-73
2022/06/25 04:17:57;;;;;;;3.00;1.33;;;;;;;21.27;63.66;100352.88;4785501;29;20051;-73
2022/06/25 04:20:25;;;;;;;0.80;0.80;;;;;;;21.29;64.19;100360.84;4787315;29;20419;-73
2022/06/25 04:22:53;;;;;;;0.77;0.77;;;;;;;21.28;64.19;100356.44;4786077;29;20408;-73
2022/06/25 04:25:22;;;;;;;2.50;0.85;;;;;;;21.33;63.79;100350.59;4785401;29;20055;-73
2022/06/25 04:30:36;;;;;;;2.30;1.10;;;;;;;21.55;62.43;100359.50;4786043;29;20051;-73
2022/06/25 04:33:04;;;;;;;1.98;0.85;;;;;;;21.57;61.95;100359.94;4785707;29;20051;-73
2022/06/25 04:35:37;;;;;;;0.60;0.60;;;;;;;21.90;60.70;100355.97;4785350;29;20051;-73
2022/06/25 04:38:22;;;;;;;2.17;1.13;;;;;;;21.85;60.66;100356.25;4785723;29;20059;-74
2022/06/25 04:40:50;;;;;;;1.23;0.60;;;;;;;22.02;60.16;100364.19;4785139;29;20044;-73
2022/06/25 04:43:18;;;;;;;3.08;0.93;;;;;;;22.17;59.95;100369.25;4785925;29;20504;-73
2022/06/25 04:45:46;;;;;;;2.25;0.88;;;;;;;22.26;59.84;100362.31;4785989;29;20055;-73
2022/06/25 04:48:21;;;;;;;2.03;1.02;;;;;;;22.36;59.60;100366.50;4786010;29;20047;-74
2022/06/25 04:51:14;;;;;;;2.35;0.73;;;;;;;22.41;59.75;100365.41;4785503;29;20072;-73
2022/06/25 04:53:57;;;;;;;0.70;0.60;;;;;;;22.37;59.67;100379.25;4785511;29;20515;-73
2022/06/25 04:56:39;;;;;;;0.60;0.50;;;;;;;22.45;59.63;100382.19;4785203;30;20067;-74
2022/06/25 04:59:07;;;;;;;0.93;0.70;;;;;;;22.51;58.87;100384.34;4785829;29;20077;-73
2022/06/25 05:01:54;;;;;;;1.42;0.70;;;;;;;22.91;57.32;100392.69;4786535;29;20059;-73
2022/06/25 05:04:33;;;;;;;0.80;0.80;;;;;;;22.95;57.25;100393.56;4785210;29;20060;-73
2022/06/25 05:07:01;;;;;;;3.90;0.70;;;;;;;23.03;56.51;100400.88;4788771;29;20064;-73
2022/06/25 05:09:29;;;;;;;1.27;0.73;;;;;;;23.17;55.51;100408.72;4796056;29;20048;-73
2022/06/25 05:11:58;;;;;;;2.22;0.73;;;;;;;23.29;55.25;100404.94;4779167;29;20055;-74
2022/06/25 05:14:26;;;;;;;2.47;0.98;;;;;;;23.44;54.78;100402.44;4784989;29;20058;-74
2022/06/25 05:16:54;;;;;;;2.65;0.98;;;;;;;23.54;55.19;100401.81;4785147;29;20419;-74
2022/06/25 05:19:23;;;;;;;1.95;0.68;;;;;;;23.60;54.12;100405.88;4784988;29;20090;-73
2022/06/25 05:21:52;;;;;;;2.70;0.85;;;;;;;23.81;53.05;100410.22;4785675;29;20492;-73
2022/06/25 05:24:19;;;;;;;2.20;0.63;;;;;;;23.86;53.02;100412.66;4785495;29;20435;-74
2022/06/25 05:26:48;;;;;;;4.03;0.70;;;;;;;24.08;52.36;100427.00;4785031;29;20055;-73
2022/06/25 05:29:16;;;;;;;2.45;0.60;;;;;;;24.16;52.01;100419.53;4785248;29;20059;-73
2022/06/25 05:31:43;;;;;;;2.63;0.85;;;;;;;24.31;51.55;100417.75;4785456;29;20060;-74
2022/06/25 05:34:11;;;;;;;1.58;0.60;;;;;;;24.49;50.46;100420.75;4785736;29;20063;-73
2022/06/25 05:36:43;;;;;;;1.35;0.47;;;;;;;24.48;50.01;100419.16;4784466;29;20063;-74
2022/06/25 05:39:12;;;;;;;0.68;0.60;;;;;;;24.49;50.09;100425.56;4782537;29;20059;-74
2022/06/25 05:41:40;;;;;;;1.27;0.68;;;;;;;24.59;49.95;100421.28;4772194;30;20062;-78
2022/06/25 05:44:08;;;;;;;1.67;0.77;;;;;;;24.89;48.91;100429.69;4781106;29;20055;-78
2022/06/25 05:46:36;;;;;;;0.63;0.43;;;;;;;25.17;48.33;100433.97;4775822;29;20063;-78
2022/06/25 05:49:05;;;;;;;1.23;0.60;;;;;;;25.30;47.45;100436.47;4785622;29;20519;-78
2022/06/25 05:51:32;;;;;;;2.45;0.68;;;;;;;25.41;46.91;100445.78;4786495;29;20395;-78
2022/06/25 05:54:00;;;;;;;1.65;0.93;;;;;;;25.50;45.43;100440.69;4787531;29;20056;-79
2022/06/25 05:56:28;;;;;;;0.50;0.50;;;;;;;25.53;45.79;100435.50;4790775;29;20055;-78
2022/06/25 05:58:56;;;;;;;0.57;0.45;;;;;;;25.64;44.88;100447.63;4789444;29;20130;-78
2022/06/25 06:01:24;;;;;;;4.75;0.73;;;;;;;25.73;44.78;100453.72;4791250;29;20066;-78
2022/06/25 06:03:52;;;;;;;0.65;0.52;;;;;;;25.84;43.51;100442.56;4785070;29;20043;-78
2022/06/25 06:06:20;;;;;;;2.03;0.28;;;;;;;26.02;43.47;100456.75;4785295;29;20542;-78
2022/06/25 06:08:48;;;;;;;0.22;0.22;;;;;;;26.09;42.30;100452.38;4799248;29;20051;-77
2022/06/25 06:11:16;;;;;;;0.28;0.20;;;;;;;26.08;41.74;100456.34;4787841;29;20047;-79
2022/06/25 06:13:44;;;;;;;0.88;0.45;;;;;;;26.07;42.07;100451.94;4788821;29;20067;-78
2022/06/25 06:16:12;;;;;;;0.17;0.17;;;;;;;26.13;41.57;100464.41;4782580;29;20059;-79
2022/06/25 06:18:40;;;;;;;0.22;0.20;;;;;;;26.21;41.79;100456.84;4775852;29;20066;-78
2022/06/25 06:21:08;;;;;;;1.33;0.30;;;;;;;26.37;40.78;100456.56;4792057;29;20051;-79
2022/06/25 06:23:42;;;;;;;0.38;0.25;;;;;;;26.43;40.43;100463.41;4788384;29;20078;-79
2022/06/25 06:26:10;;;;;;;2.00;0.32;;;;;;;26.52;40.76;100469.47;4773382;29;20055;-79
2022/06/25 06:28:38;;;;;;;0.30;0.30;;;;;;;26.62;39.90;100475.50;4778990;29;20415;-79
2022/06/25 06:31:07;;;;;;;2.05;0.50;;;;;;;26.77;39.97;100470.75;4786281;29;20062;-78
2022/06/25 06:33:36;;;;;;;2.13;0.45;;;;;;;26.83;39.99;100472.81;4785151;29;20047;-78
2022/06/25 06:36:04;;;;;;;2.00;0.40;;;;;;;26.89;40.34;100475.25;4804329;29;20047;-78
2022/06/25 06:38:32;;;;;;;2.40;0.63;;;;;;;26.94;40.36;100472.09;4806781;29;20517;-78
2022/06/25 06:41:05;;;;;;;0.40;0.40;;;;;;;26.99;40.65;100474.50;4807015;29;20403;-78
2022/06/25 06:43:33;;;;;;;0.70;0.30;;;;;;;26.98;40.36;100478.53;4798584;29;20426;-78
2022/06/25 06:46:01;;;;;;;0.73;0.40;;;;;;;26.94;39.82;100492.53;4803596;29;20047;-78
2022/06/25 06:48:29;;;;;;;0.85;0.30;;;;;;;26.92;39.79;100494.13;4789980;29;20067;-78
2022/06/25 06:50:57;;;;;;;0.35;0.35;;;;;;;26.86;39.46;100487.25;4803152;29;20047;-78
2022/06/25 06:53:25;;;;;;;1.52;0.38;;;;;;;26.94;39.57;100494.53;4806622;29;20062;-78
2022/06/25 06:55:53;;;;;;;0.75;0.40;;;;;;;27.10;38.73;100499.81;4790465;29;20043;-78
2022/06/25 06:58:21;;;;;;;1.45;0.40;;;;;;;27.20;37.12;100495.41;4806534;29;20083;-78
2022/06/25 07:00:50;;;;;;;0.35;0.35;;;;;;;27.33;37.24;100505.06;4806458;29;20600;-78
2022/06/25 07:03:17;;;;;;;0.40;0.40;;;;;;;27.49;37.26;100507.53;4806436;29;20065;-78
2022/06/25 07:05:46;;;;;;;0.22;0.20;;;;;;;27.57;35.85;100508.31;4775386;29;20055;-78
2022/06/25 07:08:20;;;;;;;0.20;0.20;;;;;;;27.60;36.81;100513.19;4805619;29;20406;-78
2022/06/25 07:10:48;;;;;;;1.52;0.30;;;;;;;27.68;36.06;100518.81;4805439;29;20058;-78
2022/06/25 07:13:16;;;;;;;0.35;0.20;;;;;;;27.57;35.62;100515.97;4806059;29;20063;-78
2022/06/25 07:15:45;;;;;;;0.10;0.10;;;;;;;27.73;35.44;100526.84;4806165;29;20552;-78
2022/06/25 07:18:12;;;;;;;0.63;0.40;;;;;;;27.84;35.40;100527.66;4802155;29;20661;-78
2022/06/25 07:20:40;;;;;;;1.67;0.25;;;;;;;27.90;35.85;100526.06;4791370;29;20055;-78
2022/06/25 07:23:22;;;;;;;0.30;0.20;;;;;;;28.00;35.08;100535.69;4799088;29;20055;-78
2022/06/25 07:25:52;;;;;;;0.30;0.30;;;;;;;28.01;35.38;100530.88;4804645;29;20047;-80
2022/06/25 07:28:21;;;;;;;0.68;0.50;;;;;;;28.06;35.58;100538.09;4802995;29;20051;-80
2022/06/25 07:30:49;;;;;;;0.30;0.30;;;;;;;28.14;36.05;100529.25;4791753;29;20047;-80
2022/06/25 07:33:17;;;;;;;2.95;0.80;;;;;;;28.09;36.04;100538.09;4785225;29;20415;-80
2022/06/25 07:35:46;;;;;;;0.30;0.28;;;;;;;28.20;36.99;100534.47;4792429;29;20055;-79
2022/06/25 07:38:16;;;;;;;0.40;0.40;;;;;;;28.13;38.35;100541.72;4797551;29;20081;-80
2022/06/25 07:40:44;;;;;;;0.65;0.40;;;;;;;28.21;38.49;100538.91;4802942;29;20051;-80
2022/06/25 07:43:12;;;;;;;3.45;1.20;;;;;;;28.24;38.55;100538.13;4780941;29;20407;-80
2022/06/25 07:45:40;;;;;;;0.82;0.68;;;;;;;28.27;38.94;100551.38;4797183;29;20066;-79
2022/06/25 07:48:09;;;;;;;1.63;0.82;;;;;;;28.29;38.84;100537.69;4789626;29;20062;-79
2022/06/25 07:53:26;;;;;;;2.70;0.95;;;;;;;28.31;39.94;100543.75;4790569;29;20047;-80
2022/06/25 07:55:54;;;;;;;4.10;1.00;;;;;;;28.39;40.02;100542.50;4777648;29;20055;-79
2022/06/25 07:58:23;;;;;;;1.90;1.13;;;;;;;28.42;39.82;100536.09;4798172;29;20054;-80
2022/06/25 08:00:52;;;;;;;0.50;0.50;;;;;;;28.61;39.69;100538.84;4791812;29;20054;-79
2022/06/25 08:03:22;;;;;;;2.85;0.82;;;;;;;28.59;39.47;100530.81;4785166;29;20517;-80
2022/06/25 08:05:50;;;;;;;1.08;0.88;;;;;;;28.71;39.10;100540.84;4800757;29;20055;-80
2022/06/25 08:08:18;;;;;;;1.65;0.60;;;;;;;28.64;38.46;100530.38;4804393;29;20047;-79
2022/06/25 08:10:45;;;;;;;1.20;1.10;;;;;;;28.61;38.65;100528.41;4804988;29;20538;-79
2022/06/25 08:13:21;;;;;;;1.42;0.80;;;;;;;28.66;38.04;100536.44;4799379;29;20055;-79
2022/06/25 08:15:50;;;;;;;1.55;0.80;;;;;;;28.74;37.79;100539.22;4800874;29;20050;-80
2022/06/25 08:18:19;;;;;;;0.77;0.70;;;;;;;28.78;37.53;100542.84;4788831;29;20054;-79
2022/06/25 08:20:47;;;;;;;0.73;0.60;;;;;;;28.78;37.72;100534.41;4805199;29;20059;-79
2022/06/25 08:23:16;;;;;;;1.95;0.57;;;;;;;28.81;38.16;100534.38;4781408;29;20055;-79
2022/06/25 08:25:44;;;;;;;1.85;0.50;;;;;;;28.81;38.08;100530.75;4796573;29;20069;-80
2022/06/25 08:28:13;;;;;;;1.08;0.82;;;;;;;28.86;39.15;100538.81;4796884;29;20065;-79
2022/06/25 08:30:43;;;;;;;1.52;1.00;;;;;;;28.97;39.33;100533.94;4785270;29;20056;-79
2022/06/25 08:33:11;;;;;;;2.58;1.00;;;;;;;28.91;39.60;100535.56;4801445;29;20054;-79
2022/06/25 08:35:39;;;;;;;1.02;0.80;;;;;;;28.96;39.36;100537.97;4796248;29;20525;-79
2022/06/25 08:38:08;;;;;;;1.45;1.10;;;;;;;29.11;40.04;100526.63;4800889;29;20054;-79
2022/06/25 08:40:37;;;;;;;1.45;1.02;;;;;;;29.12;39.95;100527.44;4802843;29;20054;-79
2022/06/25 08:43:11;;;;;;;2.60;1.48;;;;;;;29.13;39.86;100535.47;4802676;29;20055;-80
2022/06/25 08:45:39;;;;;;;2.33;0.82;;;;;;;29.10;39.29;100530.66;4802584;29;20051;-79
2022/06/25 08:48:11;;;;;;;1.90;0.90;;;;;;;29.00;39.86;100551.22;4798101;29;20054;-79
2022/06/25 08:50:41;;;;;;;1.20;0.95;;;;;;;28.92;40.35;100548.44;4800801;29;20054;-80
2022/06/25 08:53:10;;;;;;;1.35;1.02;;;;;;;29.04;39.71;100540.75;4801138;29;20491;-79
2022/06/25 08:55:39;;;;;;;2.63;1.13;;;;;;;29.11;39.85;100537.88;4799496;29;20075;-79
2022/06/25 08:58:09;;;;;;;1.70;1.23;;;;;;;29.20;40.14;100534.63;4768035;29;20051;-80
2022/06/25 09:00:39;;;;;;;0.65;0.65;;;;;;;29.31;40.01;100541.00;4795447;29;20507;-80
2022/06/25 09:03:08;;;;;;;2.00;1.23;;;;;;;29.32;39.58;100548.25;4790869;29;20061;-80
2022/06/25 09:05:40;;;;;;;5.45;1.23;;;;;;;29.32;38.60;100536.97;4788114;29;20055;-80
2022/06/25 09:08:11;;;;;;;6.47;1.15;;;;;;;29.46;39.41;100529.63;4787854;29;20050;-79
2022/06/25 09:10:41;;;;;;;1.58;0.82;;;;;;;29.59;38.80;100533.63;4794804;29;20051;-79
2022/06/25 09:13:11;;;;;;;2.42;0.98;;;;;;;29.56;37.90;100539.28;4792529;29;20051;-79
2022/06/25 09:15:44;;;;;;;1.13;1.00;;;;;;;29.54;38.20;100524.78;4790649;29;20066;-79
2022/06/25 09:18:13;;;;;;;1.85;0.70;;;;;;;29.55;38.23;100537.66;4793723;29;20059;-80
2022/06/25 09:21:01;;;;;;;1.20;1.10;;;;;;;29.64;38.33;100532.38;4788452;29;20058;-79
2022/06/25 09:23:35;;;;;;;1.75;0.70;;;;;;;29.76;37.96;100540.34;4790379;29;20059;-79
2022/06/25 09:26:07;;;;;;;2.05;1.08;;;;;;;29.81;37.47;100539.09;4793310;29;20084;-79
2022/06/25 09:28:41;;;;;;;1.75;0.75;;;;;;;29.87;37.00;100534.59;4802511;29;20062;-79
2022/06/25 09:31:09;;;;;;;2.30;0.85;;;;;;;29.86;36.81;100530.19;4801961;29;20086;-80
2022/06/25 10:06:42;;;;;;;2.88;1.17;;;;;;;29.96;35.54;100525.66;5059793;28;21004;-80
2022/06/25 10:09:11;;;;;;;2.83;0.75;;;;;;;30.16;35.39;100527.97;5059074;28;20064;-79
2022/06/25 10:11:40;;;;;;;2.25;0.80;;;;;;;30.43;34.91;100539.38;5035745;28;20052;-80
2022/06/25 10:14:08;;;;;;;1.30;1.10;;;;;;;30.63;34.95;100533.09;5030010;28;20044;-79
2022/06/25 10:16:36;;;;;;;1.50;0.70;;;;;;;30.79;34.69;100526.91;5047630;28;20055;-80
2022/06/25 10:19:05;;;;;;;1.15;0.90;;;;;;;30.81;34.58;100530.13;5048114;28;20049;-79
2022/06/25 10:21:48;;;;;;;2.47;1.40;;;;;;;30.84;34.38;100529.25;5045267;28;20073;-79
2022/06/25 10:24:28;;;;;;;1.15;0.90;;;;;;;30.91;33.92;100516.25;5047790;28;20551;-79
2022/06/25 10:26:56;;;;;;;1.98;0.90;;;;;;;31.06;34.40;100520.50;5038682;28;20515;-79
2022/06/25 10:29:28;;;;;;;1.23;0.80;;;;;;;31.12;33.33;100526.47;5047914;28;20041;-80
2022/06/25 10:32:17;;;;;;;1.17;0.80;;;;;;;31.24;33.29;100517.44;5046122;28;20060;-80
2022/06/25 10:35:03;;;;;;;1.20;0.68;;;;;;;31.36;31.87;100518.91;5051717;28;20407;-80
2022/06/25 10:38:08;;;;;;;1.02;0.70;;;;;;;31.30;32.72;100503.66;5047509;28;20053;-80
2022/06/25 10:40:49;;;;;;;1.08;0.90;;;;;;;31.26;32.62;100511.34;5043416;28;20045;-80
2022/06/25 10:43:40;;;;;;;2.42;0.88;;;;;;;31.46;32.59;100513.50;5046561;28;20052;-80
2022/06/25 10:46:37;;;;;;;2.30;0.95;;;;;;;31.55;31.49;100508.13;5036483;28;20052;-80
2022/06/25 10:49:17;;;;;;;1.42;0.60;;;;;;;31.42;32.58;100498.66;5046942;28;20108;-80
2022/06/25 10:51:47;;;;;;;3.40;1.00;;;;;;;31.42;33.12;100498.66;5045344;28;20049;-79
2022/06/25 10:54:37;;;;;;;1.02;0.55;;;;;;;31.70;33.54;100502.22;5060047;28;20064;-80
2022/06/25 10:57:05;;;;;;;2.13;0.75;;;;;;;31.82;33.52;100498.81;5049480;28;20036;-80
2022/06/25 10:59:46;;;;;;;6.05;1.20;;;;;;;31.87;32.22;100498.34;5048931;28;20492;-80
2022/06/25 11:02:17;;;;;;;4.70;1.30;;;;;;;31.89;32.05;100493.06;5047609;28;20037;-80
2022/06/25 11:04:54;;;;;;;1.20;1.10;;;;;;;32.03;32.53;100502.53;5053974;28;20050;-80
2022/06/25 11:07:25;;;;;;;2.70;1.17;;;;;;;32.13;32.57;100487.38;5059700;28;20041;-80
2022/06/25 11:10:01;;;;;;;1.02;0.90;;;;;;;32.25;32.67;100485.94;5047434;28;20392;-80
2022/06/25 11:12:34;;;;;;;3.92;1.08;;;;;;;32.54;32.16;100490.28;5047381;28;20479;-80
2022/06/25 11:15:06;;;;;;;3.65;1.00;;;;;;;32.55;31.94;100486.22;5066974;28;20392;-80
2022/06/25 11:17:35;;;;;;;2.70;1.25;;;;;;;32.43;31.89;100487.66;5038651;28;20052;-80
2022/06/25 11:20:08;;;;;;;1.17;1.00;;;;;;;32.32;31.98;100485.00;5035304;28;20041;-80
2022/06/25 11:22:47;;;;;;;1.02;0.80;;;;;;;32.52;32.15;100485.06;5033613;28;21528;-80
2022/06/25 11:30:51;;;;;;;1.80;1.00;;;;;;;32.79;32.14;100483.28;5033529;28;20492;-80
2022/06/25 11:33:20;;;;;;;2.70;1.30;;;;;;;32.81;32.27;100483.66;5034477;28;20049;-80
2022/06/25 11:35:49;;;;;;;3.38;1.35;;;;;;;32.50;33.21;100481.06;5044252;28;20044;-80
2022/06/25 11:38:19;;;;;;;2.88;1.88;;;;;;;32.93;32.49;100488.63;5034896;28;20048;-80
2022/06/25 11:40:47;;;;;;;1.75;1.25;;;;;;;32.89;32.66;100485.06;5033026;28;20385;-80
2022/06/25 11:43:15;;;;;;;2.92;1.30;;;;;;;32.86;32.39;100488.81;5033339;28;20045;-80
2022/06/25 14:15:47;;;;;;;0.60;0.60;;;;;;;35.42;26.33;100415.47;5094105;27;20418;-81
2022/06/25 14:18:15;;;;;;;3.22;0.82;;;;;;;35.66;25.13;100413.03;5088666;28;20048;-81
2022/06/25 14:20:43;;;;;;;2.28;1.00;;;;;;;35.88;25.42;100424.44;5067251;28;20041;-80
2022/06/25 14:23:12;;;;;;;2.05;0.82;;;;;;;36.04;24.90;100419.84;5044070;28;20041;-80
2022/06/25 14:25:40;;;;;;;2.10;0.85;;;;;;;36.05;25.43;100415.72;5086916;28;20048;-81
2022/06/25 14:28:08;;;;;;;1.38;0.80;;;;;;;36.08;24.84;100409.13;5070550;28;20044;-80
2022/06/25 14:30:36;;;;;;;1.08;0.98;;;;;;;35.84;25.56;100415.25;5054080;28;20059;-81
2022/06/25 14:33:06;;;;;;;1.80;1.17;;;;;;;36.05;24.82;100404.34;5070468;28;20048;-81
2022/06/25 14:35:33;;;;;;;1.52;0.98;;;;;;;36.22;24.44;100407.81;5065609;28;20482;-81
2022/06/25 15:07:55;;;;;;;1.88;0.80;;;;;;;35.09;26.89;100396.63;5079484;27;20437;-80
2022/06/25 15:10:24;;;;;;;1.45;0.90;;;;;;;35.33;26.46;100391.34;5050612;28;20047;-81
2022/06/25 15:12:53;;;;;;;4.07;1.33;;;;;;;35.44;25.16;100382.47;5071768;28;20049;-81
2022/06/25 15:15:21;;;;;;;1.23;1.13;;;;;;;35.57;26.16;100387.31;5080605;28;20066;-79
2022/06/25 15:17:49;;;;;;;3.90;0.77;;;;;;;35.60;26.17;100392.09;5070511;28;20047;-80
2022/06/25 15:20:17;;;;;;;0.80;0.80;;;;;;;35.58;25.59;100383.22;5057043;28;20479;-80
2022/06/25 15:22:45;;;;;;;1.08;0.70;;;;;;;35.05;24.79;100378.84;5088570;28;20040;-80
2022/06/25 15:25:13;;;;;;;4.85;0.88;;;;;;;35.00;26.21;100382.28;5088369;28;20051;-81
2022/06/25 15:27:41;;;;;;;1.15;0.77;;;;;;;35.02;25.47;100374.88;5069090;28;20075;-80
2022/06/25 15:30:10;;;;;;;2.20;0.88;;;;;;;35.25;26.44;100372.94;5087029;28;20402;-80
2022/06/25 15:32:37;;;;;;;1.02;1.02;;;;;;;35.35;26.67;100373.84;5069504;28;20044;-80